Time;durP1;ratioP1;P1;durP2;ratioP2;P2;SDS_P1;SDS_P2;PMS_P1;PMS_P2;Temp;Humidity;BMP_temperature;BMP_pressure;BME280_temperature;BME280_humidity;BME280_pressure;Samples;Min_cycle;Max_cycle;Signal;HPM_P1;HPM_P2
2021/07/18 00:02:17;;;;;;;16.73;7.57;;;24.60;96.70;;;;;;5041881;28;20214;-74
2021/07/18 00:04:43;;;;;;;13.20;7.40;;;24.60;96.80;;;;;;5043731;28;20185;-74
2021/07/18 00:07:09;;;;;;;15.83;7.10;;;24.60;96.70;;;;;;5030150;28;20229;-75
2021/07/18 00:09:36;;;;;;;11.27;6.90;;;24.70;96.90;;;;;;5048413;28;20226;-73
2021/07/18 00:12:03;;;;;;;13.47;6.97;;;24.70;96.80;;;;;;5041170;28;20188;-73
2021/07/18 00:14:29;;;;;;;9.73;6.53;;;24.70;96.60;;;;;;5046010;28;20203;-73
2021/07/18 00:16:55;;;;;;;10.10;6.70;;;24.70;96.30;;;;;;5040250;28;20202;-72
2021/07/18 00:19:21;;;;;;;10.47;7.17;;;24.60;96.50;;;;;;5021669;28;20693;-73
2021/07/18 00:21:48;;;;;;;12.43;6.70;;;24.70;96.70;;;;;;5041953;28;20188;-72
2021/07/18 00:24:14;;;;;;;12.27;7.00;;;24.70;96.60;;;;;;5027946;28;20191;-72
2021/07/18 00:26:41;;;;;;;13.23;6.67;;;24.70;96.10;;;;;;5024421;28;20703;-73
2021/07/18 00:29:07;;;;;;;10.73;6.97;;;24.70;95.90;;;;;;5045588;28;20269;-73
2021/07/18 00:31:33;;;;;;;12.27;6.70;;;24.60;96.20;;;;;;5046885;28;20172;-74
2021/07/18 00:34:00;;;;;;;11.97;6.60;;;24.60;95.90;;;;;;5042990;28;20207;-74
2021/07/18 00:36:26;;;;;;;15.93;7.30;;;24.60;95.80;;;;;;5020112;28;20279;-75
2021/07/18 00:38:52;;;;;;;9.30;6.43;;;24.60;95.80;;;;;;5040359;28;20223;-74
2021/07/18 00:41:18;;;;;;;13.77;6.85;;;24.50;95.30;;;;;;5027256;28;20198;-75
2021/07/18 00:43:46;;;;;;;11.10;6.90;;;24.50;94.90;;;;;;5044202;28;20199;-73
2021/07/18 00:46:12;;;;;;;15.30;6.53;;;24.50;94.90;;;;;;5042688;28;20737;-72
2021/07/18 00:48:38;;;;;;;10.63;6.47;;;24.40;95.00;;;;;;5030722;28;20543;-75
2021/07/18 00:51:05;;;;;;;16.37;7.13;;;24.40;94.90;;;;;;5045008;28;20192;-75
2021/07/18 00:53:31;;;;;;;11.30;6.90;;;24.30;95.00;;;;;;5042848;28;20267;-75
2021/07/18 00:55:58;;;;;;;12.57;6.80;;;24.30;95.20;;;;;;5046865;28;20184;-74
2021/07/18 00:58:30;;;;;;;15.57;6.63;;;24.20;95.20;;;;;;5044006;28;20183;-74
2021/07/18 01:00:58;;;;;;;10.60;6.60;;;24.20;95.40;;;;;;5037667;28;20198;-75
2021/07/18 01:03:27;;;;;;;12.23;7.23;;;24.10;95.50;;;;;;5038997;28;20536;-75
2021/07/18 01:05:54;;;;;;;13.87;7.03;;;24.10;95.50;;;;;;5037679;28;20188;-75
2021/07/18 01:08:21;;;;;;;8.50;7.30;;;24.10;95.70;;;;;;5040777;28;20329;-75
2021/07/18 01:10:47;;;;;;;10.77;6.93;;;24.10;95.90;;;;;;5039468;28;20253;-75
2021/07/18 01:13:16;;;;;;;18.37;7.17;;;24.10;95.90;;;;;;5027003;28;20905;-75
2021/07/18 01:15:43;;;;;;;16.80;7.17;;;24.10;95.90;;;;;;5048631;28;20283;-75
2021/07/18 01:18:11;;;;;;;9.60;7.20;;;24.10;95.80;;;;;;5030079;28;20723;-75
2021/07/18 01:20:40;;;;;;;9.23;7.07;;;24.10;95.80;;;;;;5034129;28;20300;-75
2021/07/18 01:23:07;;;;;;;11.60;7.20;;;24.10;96.10;;;;;;5026266;28;20191;-75
2021/07/18 01:25:35;;;;;;;10.67;6.67;;;24.20;96.10;;;;;;5040530;28;20365;-75
2021/07/18 01:28:11;;;;;;;12.77;6.67;;;24.20;96.00;;;;;;5021052;28;20360;-75
2021/07/18 01:30:39;;;;;;;12.50;7.00;;;24.20;95.90;;;;;;5043689;28;20230;-75
2021/07/18 01:33:06;;;;;;;11.83;6.50;;;24.20;96.10;;;;;;5038622;28;20193;-75
2021/07/18 01:35:32;;;;;;;14.73;7.20;;;24.20;95.70;;;;;;5023837;28;20199;-75
2021/07/18 01:38:00;;;;;;;15.87;6.70;;;24.00;95.50;;;;;;5044455;28;20183;-75
2021/07/18 01:40:27;;;;;;;15.20;7.00;;;24.00;96.00;;;;;;5027332;28;20194;-74
2021/07/18 01:42:55;;;;;;;9.50;6.70;;;24.10;95.80;;;;;;5044350;28;20195;-75
2021/07/18 01:45:24;;;;;;;12.33;6.50;;;24.10;95.50;;;;;;5025155;28;20212;-76
2021/07/18 01:47:50;;;;;;;12.63;6.73;;;24.20;95.80;;;;;;5041016;28;20180;-75
2021/07/18 01:50:17;;;;;;;9.37;6.47;;;24.20;95.40;;;;;;5030775;28;20285;-75
2021/07/18 01:52:45;;;;;;;10.43;6.40;;;24.10;94.70;;;;;;5035915;28;20187;-75
2021/07/18 01:55:13;;;;;;;12.33;6.30;;;23.90;94.90;;;;;;5023975;28;20740;-76
2021/07/18 01:57:40;;;;;;;13.20;6.60;;;23.80;95.00;;;;;;5041887;28;20973;-76
2021/07/18 02:00:11;;;;;;;11.97;6.37;;;23.90;94.70;;;;;;5041756;28;20212;-75
2021/07/18 02:02:41;;;;;;;15.17;6.20;;;23.70;94.60;;;;;;5022480;28;20191;-75
2021/07/18 02:05:09;;;;;;;9.53;6.37;;;23.70;94.60;;;;;;5035231;28;20482;-76
2021/07/18 02:07:35;;;;;;;10.27;6.10;;;23.70;94.70;;;;;;5028789;28;20278;-76
2021/07/18 02:10:02;;;;;;;7.80;5.43;;;23.70;94.80;;;;;;5058788;28;20243;-75
2021/07/18 02:12:28;;;;;;;7.50;5.87;;;23.70;94.10;;;;;;5049779;28;20180;-75
2021/07/18 02:14:55;;;;;;;11.30;5.67;;;23.60;94.00;;;;;;5051601;28;20261;-75
2021/07/18 02:17:21;;;;;;;8.67;6.07;;;23.60;94.00;;;;;;5031158;28;20218;-74
2021/07/18 02:19:47;;;;;;;13.80;6.13;;;23.60;93.80;;;;;;5045593;28;20230;-74
2021/07/18 02:22:14;;;;;;;12.50;6.20;;;23.70;94.00;;;;;;5055066;28;20191;-74
2021/07/18 02:24:41;;;;;;;8.87;5.57;;;23.70;93.90;;;;;;5048322;28;20210;-76
2021/07/18 02:27:07;;;;;;;7.63;5.40;;;23.70;93.50;;;;;;5041286;28;20185;-76
2021/07/18 02:29:34;;;;;;;10.57;5.57;;;23.80;93.50;;;;;;5028767;28;20320;-76
2021/07/18 02:32:00;;;;;;;9.90;6.67;;;23.80;93.70;;;;;;5045135;28;20186;-74
2021/07/18 02:34:26;;;;;;;19.53;6.37;;;23.80;93.40;;;;;;5039128;28;20242;-74
2021/07/18 02:36:52;;;;;;;13.13;5.93;;;23.80;93.60;;;;;;5030213;28;20183;-74
2021/07/18 02:39:19;;;;;;;13.17;6.40;;;23.90;94.00;;;;;;5048616;28;20192;-74
2021/07/18 02:41:45;;;;;;;11.23;6.30;;;23.80;93.70;;;;;;5044061;28;20220;-73
2021/07/18 02:44:11;;;;;;;11.57;6.37;;;23.70;93.40;;;;;;5028605;28;20191;-76
2021/07/18 02:46:37;;;;;;;13.13;6.47;;;23.60;93.20;;;;;;5034942;28;20208;-74
2021/07/18 02:49:04;;;;;;;12.43;5.80;;;23.50;93.50;;;;;;5041835;28;20286;-76
2021/07/18 02:51:31;;;;;;;16.83;6.53;;;23.50;93.70;;;;;;5019532;28;20192;-75
2021/07/18 02:53:57;;;;;;;14.20;6.10;;;23.40;93.60;;;;;;5040729;28;20195;-75
2021/07/18 02:56:24;;;;;;;10.43;6.30;;;23.40;93.70;;;;;;5042928;28;20317;-75
2021/07/18 02:58:50;;;;;;;7.83;6.13;;;23.40;93.80;;;;;;5026867;28;20199;-75
2021/07/18 03:01:18;;;;;;;8.43;6.17;;;23.50;93.60;;;;;;5042613;28;20191;-74
2021/07/18 03:03:44;;;;;;;12.00;5.67;;;23.50;93.80;;;;;;5048258;28;20171;-74
2021/07/18 03:06:10;;;;;;;9.77;5.50;;;23.50;93.80;;;;;;5031059;28;20317;-75
2021/07/18 03:08:38;;;;;;;8.80;5.33;;;23.50;93.80;;;;;;5047672;28;20180;-74
2021/07/18 03:11:07;;;;;;;16.57;6.13;;;23.50;93.90;;;;;;5036736;28;20933;-74
2021/07/18 03:13:33;;;;;;;7.70;5.93;;;23.50;94.00;;;;;;5027664;28;20215;-74
2021/07/18 03:15:59;;;;;;;8.60;6.07;;;23.60;93.30;;;;;;5024720;28;20184;-74
2021/07/18 03:18:25;;;;;;;8.23;6.20;;;23.50;93.20;;;;;;5026581;28;20183;-75
2021/07/18 03:20:52;;;;;;;13.77;6.10;;;23.50;92.20;;;;;;5045338;28;20187;-74
2021/07/18 03:23:18;;;;;;;9.33;5.90;;;23.60;93.10;;;;;;5038607;28;20184;-74
2021/07/18 03:25:44;;;;;;;13.50;5.83;;;23.60;92.30;;;;;;5040906;28;20196;-74
2021/07/18 03:28:10;;;;;;;10.23;6.00;;;23.70;93.00;;;;;;5046639;28;20198;-74
2021/07/18 03:30:37;;;;;;;8.67;5.43;;;23.60;92.70;;;;;;5043348;28;20688;-74
2021/07/18 03:33:03;;;;;;;7.97;5.67;;;23.60;92.90;;;;;;5038733;28;20172;-73
2021/07/18 03:35:30;;;;;;;19.50;5.43;;;23.70;92.70;;;;;;5044020;28;20187;-74
2021/07/18 03:37:58;;;;;;;11.57;5.60;;;23.60;92.40;;;;;;5042786;28;20283;-74
2021/07/18 03:40:24;;;;;;;9.63;5.80;;;23.60;92.70;;;;;;5043440;28;20191;-74
2021/07/18 03:42:50;;;;;;;9.23;5.63;;;23.70;92.90;;;;;;5045445;28;20203;-74
2021/07/18 03:45:17;;;;;;;14.60;5.63;;;23.70;92.80;;;;;;5046962;28;20198;-74
2021/07/18 03:47:44;;;;;;;13.47;5.63;;;23.80;92.90;;;;;;5048037;28;20207;-74
2021/07/18 03:50:11;;;;;;;11.40;5.43;;;23.80;92.20;;;;;;5045776;28;20204;-74
2021/07/18 03:52:39;;;;;;;9.97;5.90;;;23.80;92.40;;;;;;5024170;28;20188;-74
2021/07/18 03:55:06;;;;;;;11.30;5.33;;;23.80;92.10;;;;;;5023977;28;20187;-76
2021/07/18 03:57:33;;;;;;;9.77;5.60;;;23.70;92.50;;;;;;5046262;28;20276;-76
2021/07/18 03:59:59;;;;;;;11.23;5.27;;;23.70;92.30;;;;;;5043622;28;20265;-76
2021/07/18 04:02:25;;;;;;;9.13;5.53;;;23.80;92.30;;;;;;5041899;28;20652;-73
2021/07/18 04:04:52;;;;;;;7.73;5.10;;;23.80;92.60;;;;;;5046695;28;20187;-76
2021/07/18 04:07:18;;;;;;;13.80;5.30;;;23.80;92.60;;;;;;5042120;28;20250;-76
2021/07/18 04:09:45;;;;;;;7.00;5.67;;;23.70;92.60;;;;;;5045790;28;20211;-76
2021/07/18 04:12:11;;;;;;;9.57;5.83;;;23.70;92.70;;;;;;5021244;28;20195;-73
2021/07/18 04:14:37;;;;;;;12.03;5.30;;;23.70;92.90;;;;;;5042573;28;20187;-74
2021/07/18 04:17:04;;;;;;;12.30;5.80;;;23.80;92.90;;;;;;5037946;28;20180;-73
2021/07/18 04:19:31;;;;;;;11.63;5.50;;;23.80;93.10;;;;;;5044361;28;20222;-73
2021/07/18 04:21:57;;;;;;;10.87;5.87;;;23.90;93.50;;;;;;5053886;28;20221;-76
2021/07/18 04:24:23;;;;;;;7.97;5.40;;;23.90;93.80;;;;;;5016490;28;20590;-77
2021/07/18 04:26:50;;;;;;;10.73;5.83;;;23.90;93.90;;;;;;5036275;28;20187;-76
2021/07/18 04:29:16;;;;;;;10.33;5.83;;;24.00;94.00;;;;;;5051273;28;20983;-73
2021/07/18 04:31:43;;;;;;;12.70;6.20;;;24.00;94.40;;;;;;5025491;28;20714;-74
2021/07/18 04:34:09;;;;;;;13.10;6.17;;;24.10;93.90;;;;;;5026097;28;20215;-74
2021/07/18 04:36:35;;;;;;;10.27;5.83;;;24.10;94.50;;;;;;5023305;28;20185;-73
2021/07/18 04:39:02;;;;;;;6.50;5.27;;;24.10;94.60;;;;;;5052608;28;20187;-73
2021/07/18 04:41:29;;;;;;;8.57;5.97;;;24.20;94.70;;;;;;5043866;28;20211;-73
2021/07/18 04:43:56;;;;;;;11.50;6.57;;;24.30;95.40;;;;;;5037455;28;20683;-73
2021/07/18 04:46:22;;;;;;;10.43;5.80;;;24.30;95.30;;;;;;5042860;28;20864;-73
2021/07/18 04:48:48;;;;;;;8.50;6.20;;;24.30;95.70;;;;;;5041378;28;20255;-74
2021/07/18 04:51:15;;;;;;;8.33;5.87;;;24.40;95.80;;;;;;5032157;28;20187;-74
2021/07/18 04:53:41;;;;;;;7.88;6.03;;;24.40;96.00;;;;;;5039355;28;20297;-74
2021/07/18 04:56:07;;;;;;;9.23;6.50;;;24.40;96.10;;;;;;5034135;28;20215;-73
2021/07/18 04:58:34;;;;;;;7.67;6.00;;;24.50;96.40;;;;;;5039494;28;20229;-74
2021/07/18 05:01:00;;;;;;;9.75;6.50;;;24.50;96.40;;;;;;5043073;28;20188;-74
2021/07/18 05:03:26;;;;;;;9.45;6.32;;;24.60;96.70;;;;;;5033902;28;20290;-74
2021/07/18 05:05:52;;;;;;;10.43;6.33;;;24.60;96.80;;;;;;5037709;28;20229;-74
2021/07/18 05:08:19;;;;;;;12.17;5.50;;;24.70;96.90;;;;;;5051272;28;20222;-74
2021/07/18 05:10:45;;;;;;;10.30;6.18;;;24.80;96.10;;;;;;5023806;28;20211;-74
2021/07/18 05:13:11;;;;;;;13.65;5.60;;;24.80;96.50;;;;;;5032459;28;20238;-73
2021/07/18 05:15:38;;;;;;;7.40;5.47;;;25.00;95.50;;;;;;5037289;28;20237;-74
2021/07/18 05:18:14;;;;;;;11.45;6.00;;;25.10;96.30;;;;;;5046727;28;20188;-74
2021/07/18 05:20:42;;;;;;;12.65;5.88;;;25.10;96.50;;;;;;5048228;28;20667;-74
2021/07/18 05:23:10;;;;;;;16.20;6.05;;;25.10;96.50;;;;;;5029617;28;20202;-73
2021/07/18 05:25:37;;;;;;;14.13;6.57;;;25.20;96.60;;;;;;5035679;28;20196;-74
2021/07/18 05:28:05;;;;;;;8.52;5.78;;;25.30;96.80;;;;;;5033843;28;20270;-74
2021/07/18 05:30:32;;;;;;;10.90;6.43;;;25.30;96.80;;;;;;5028427;28;20745;-74
2021/07/18 05:32:58;;;;;;;9.70;6.40;;;25.30;97.00;;;;;;5039307;28;20188;-73
2021/07/18 05:35:24;;;;;;;10.13;6.65;;;25.30;97.00;;;;;;5046230;28;20656;-74
2021/07/18 05:37:51;;;;;;;9.35;6.40;;;25.30;97.10;;;;;;5030195;28;20191;-73
2021/07/18 05:40:18;;;;;;;10.27;6.35;;;25.40;96.80;;;;;;5028224;28;20188;-74
2021/07/18 05:42:45;;;;;;;13.00;6.50;;;25.40;97.20;;;;;;5044134;28;20203;-74
2021/07/18 05:45:13;;;;;;;11.55;7.13;;;25.40;97.60;;;;;;5025177;28;20297;-73
2021/07/18 05:47:39;;;;;;;9.20;6.50;;;25.60;97.20;;;;;;5037646;28;20633;-74
2021/07/18 05:50:08;;;;;;;10.02;6.10;;;25.60;97.10;;;;;;5044185;28;20265;-73
2021/07/18 05:52:35;;;;;;;11.50;6.60;;;25.60;97.10;;;;;;5042807;28;20215;-74
2021/07/18 05:55:03;;;;;;;11.43;7.03;;;25.60;97.30;;;;;;5032618;28;20247;-74
2021/07/18 05:57:30;;;;;;;7.75;6.05;;;25.70;97.40;;;;;;5017757;28;20194;-74
2021/07/18 05:59:56;;;;;;;8.82;5.72;;;25.90;97.50;;;;;;5016387;28;20640;-73
2021/07/18 06:02:23;;;;;;;10.07;6.20;;;25.90;97.70;;;;;;5038216;28;20195;-73
2021/07/18 06:04:49;;;;;;;10.95;6.38;;;26.20;98.10;;;;;;5044324;28;20183;-73
2021/07/18 06:07:16;;;;;;;15.13;6.63;;;26.20;97.90;;;;;;5036724;28;20199;-74
2021/07/18 06:09:44;;;;;;;14.15;6.57;;;26.40;97.70;;;;;;5026824;28;20247;-74
2021/07/18 06:12:11;;;;;;;10.95;6.15;;;26.40;98.70;;;;;;5042371;28;20198;-74
2021/07/18 06:14:39;;;;;;;11.95;6.60;;;26.60;99.10;;;;;;5020634;28;20183;-74
2021/07/18 06:17:06;;;;;;;8.55;6.60;;;26.70;99.90;;;;;;5043182;28;20191;-73
2021/07/18 06:19:33;;;;;;;14.52;7.10;;;26.90;99.90;;;;;;5051228;28;20191;-73
2021/07/18 06:21:59;;;;;;;18.70;7.30;;;27.00;99.90;;;;;;5037091;28;20259;-74
2021/07/18 06:24:25;;;;;;;12.55;7.35;;;27.10;99.90;;;;;;5027208;28;20184;-74
2021/07/18 06:26:52;;;;;;;16.27;7.88;;;27.30;99.90;;;;;;5030948;28;20200;-74
2021/07/18 06:29:18;;;;;;;16.27;7.93;;;27.30;99.90;;;;;;5016613;28;20628;-74
2021/07/18 06:31:45;;;;;;;16.17;7.97;;;27.40;99.90;;;;;;5036303;28;20660;-73
2021/07/18 06:34:11;;;;;;;10.75;7.88;;;27.50;99.90;;;;;;5028620;28;20175;-74
2021/07/18 06:36:38;;;;;;;17.42;9.10;;;27.60;99.90;;;;;;5051273;28;20702;-73
2021/07/18 06:39:05;;;;;;;18.50;8.48;;;27.60;99.90;;;;;;5025542;28;20191;-74
2021/07/18 06:41:32;;;;;;;14.80;8.40;;;27.70;99.90;;;;;;5058347;28;20217;-74
2021/07/18 06:43:58;;;;;;;12.23;8.55;;;27.70;99.90;;;;;;5023282;28;20203;-73
2021/07/18 06:46:25;;;;;;;14.90;9.07;;;27.70;99.90;;;;;;5042021;28;20204;-73
2021/07/18 06:48:51;;;;;;;17.02;8.32;;;27.80;99.90;;;;;;5042360;28;20321;-73
2021/07/18 06:51:18;;;;;;;14.65;8.55;;;27.90;99.90;;;;;;5024118;28;20194;-74
2021/07/18 06:53:44;;;;;;;15.00;8.10;;;27.90;99.90;;;;;;5038636;28;20184;-74
2021/07/18 06:56:11;;;;;;;14.43;8.65;;;27.90;99.90;;;;;;5044786;28;20200;-73
2021/07/18 06:58:38;;;;;;;13.35;8.88;;;28.00;99.90;;;;;;5018746;28;20695;-74
2021/07/18 07:01:08;;;;;;;18.00;8.20;;;28.00;99.90;;;;;;5017270;28;20724;-73
2021/07/18 07:03:34;;;;;;;15.68;8.50;;;28.00;99.90;;;;;;5044680;28;20698;-73
2021/07/18 07:06:02;;;;;;;15.80;8.25;;;28.20;99.90;;;;;;5018692;28;20199;-74
2021/07/18 07:08:30;;;;;;;15.35;7.75;;;28.20;99.90;;;;;;5049305;28;20241;-73
2021/07/18 07:10:56;;;;;;;12.88;7.72;;;28.20;99.90;;;;;;5047676;28;20203;-74
2021/07/18 07:13:23;;;;;;;14.40;8.05;;;28.30;99.90;;;;;;5028515;28;20191;-74
2021/07/18 07:15:50;;;;;;;13.45;8.75;;;28.30;99.90;;;;;;5016521;28;20235;-73
2021/07/18 07:18:17;;;;;;;15.60;7.90;;;28.30;99.90;;;;;;5024651;28;20278;-74
2021/07/18 07:20:43;;;;;;;14.38;7.93;;;28.50;99.90;;;;;;5047300;28;20231;-73
2021/07/18 07:23:09;;;;;;;16.50;7.85;;;28.50;99.90;;;;;;5045338;28;20251;-73
2021/07/18 07:25:36;;;;;;;17.50;8.07;;;28.60;99.90;;;;;;5042709;28;20197;-73
2021/07/18 07:28:02;;;;;;;13.48;7.55;;;28.60;99.90;;;;;;5039552;28;20184;-73
2021/07/18 07:30:29;;;;;;;15.05;7.97;;;28.60;99.90;;;;;;5040289;28;20199;-73
2021/07/18 07:32:55;;;;;;;14.00;6.75;;;28.70;99.90;;;;;;5039928;28;20180;-76
2021/07/18 07:35:22;;;;;;;14.98;7.90;;;28.80;99.90;;;;;;5031509;28;20192;-72
2021/07/18 07:37:48;;;;;;;14.98;7.72;;;28.90;99.90;;;;;;5032531;28;20275;-73
2021/07/18 07:40:18;;;;;;;12.77;6.95;;;28.80;99.90;;;;;;5020844;28;20355;-73
2021/07/18 07:42:47;;;;;;;16.70;8.15;;;29.00;99.90;;;;;;5022319;28;20266;-76
2021/07/18 07:45:14;;;;;;;17.80;7.53;;;28.90;99.90;;;;;;5031509;28;20194;-75
2021/07/18 07:47:41;;;;;;;12.77;8.13;;;29.10;99.90;;;;;;5029908;28;20200;-73
2021/07/18 07:50:13;;;;;;;15.32;8.10;;;29.20;99.90;;;;;;5014367;28;20211;-73
2021/07/18 07:52:40;;;;;;;12.90;7.60;;;29.20;99.90;;;;;;5035303;28;20184;-73
2021/07/18 07:55:11;;;;;;;16.15;8.32;;;29.20;99.90;;;;;;5033461;28;20211;-72
2021/07/18 07:57:38;;;;;;;20.15;8.32;;;29.30;99.90;;;;;;5032994;28;20256;-73
2021/07/18 08:00:16;;;;;;;13.65;8.52;;;29.40;99.90;;;;;;5036117;28;20191;-73
2021/07/18 08:02:46;;;;;;;14.73;7.93;;;29.40;99.90;;;;;;5029661;28;20374;-73
2021/07/18 08:05:13;;;;;;;16.10;8.70;;;29.40;99.90;;;;;;5030696;28;20219;-76
2021/07/18 08:07:40;;;;;;;14.55;8.35;;;29.50;99.90;;;;;;5024942;28;20179;-73
2021/07/18 08:10:11;;;;;;;16.83;8.50;;;29.50;99.90;;;;;;5019609;28;20200;-73
2021/07/18 08:12:42;;;;;;;20.20;8.90;;;29.60;99.90;;;;;;5032330;28;20192;-75
2021/07/18 08:15:12;;;;;;;28.77;9.50;;;29.70;99.90;;;;;;5039688;28;20236;-75
2021/07/18 08:17:39;;;;;;;14.20;8.52;;;29.80;99.90;;;;;;5040430;28;20180;-75
2021/07/18 08:20:15;;;;;;;20.38;8.82;;;29.80;99.90;;;;;;5015796;28;20213;-74
2021/07/18 08:22:45;;;;;;;13.40;8.55;;;29.80;99.90;;;;;;5031816;28;20286;-73
2021/07/18 08:25:16;;;;;;;18.92;8.70;;;29.80;99.90;;;;;;5031067;28;20483;-73
2021/07/18 08:27:44;;;;;;;13.20;8.02;;;29.80;99.90;;;;;;5024224;28;20195;-72
2021/07/18 08:30:15;;;;;;;13.88;8.20;;;29.90;99.90;;;;;;5022650;28;20979;-73
2021/07/18 08:32:42;;;;;;;14.77;8.88;;;29.90;99.90;;;;;;5017513;28;20191;-73
2021/07/18 08:35:09;;;;;;;21.45;8.35;;;30.10;99.90;;;;;;5018695;28;20209;-74
2021/07/18 08:37:36;;;;;;;17.83;8.95;;;30.10;99.90;;;;;;5016724;28;20184;-73
2021/07/18 08:40:08;;;;;;;21.00;8.20;;;30.10;99.90;;;;;;5048783;28;20193;-75
2021/07/18 08:42:36;;;;;;;15.85;8.30;;;30.00;99.90;;;;;;5031057;28;20211;-75
2021/07/18 08:45:06;;;;;;;13.70;8.50;;;30.00;99.90;;;;;;5034478;28;20190;-75
2021/07/18 08:47:33;;;;;;;21.77;8.65;;;30.10;99.90;;;;;;5024277;28;20222;-75
2021/07/18 08:50:00;;;;;;;21.15;9.07;;;30.10;99.90;;;;;;5030162;28;20211;-75
2021/07/18 08:52:27;;;;;;;22.42;9.40;;;30.00;99.90;;;;;;5029486;28;20283;-73
2021/07/18 08:54:54;;;;;;;17.48;8.95;;;30.10;99.90;;;;;;5037648;28;20226;-75
2021/07/18 08:57:24;;;;;;;17.58;8.55;;;30.10;99.90;;;;;;5028263;28;20188;-73
2021/07/18 08:59:51;;;;;;;16.92;8.38;;;30.10;99.90;;;;;;5022908;28;20345;-73
2021/07/18 09:02:19;;;;;;;18.95;8.38;;;30.30;99.90;;;;;;5022967;28;20188;-73
2021/07/18 09:04:47;;;;;;;15.50;8.70;;;30.20;99.90;;;;;;5035677;28;20195;-76
2021/07/18 09:07:18;;;;;;;16.77;8.32;;;30.20;99.90;;;;;;5028250;28;20522;-73
2021/07/18 09:09:48;;;;;;;16.75;8.82;;;30.30;99.90;;;;;;5033191;28;20632;-72
2021/07/18 09:12:16;;;;;;;19.33;8.82;;;30.30;99.90;;;;;;5019906;28;20306;-75
2021/07/18 09:14:49;;;;;;;14.93;8.13;;;30.30;99.90;;;;;;5035086;28;20207;-73
2021/07/18 09:17:24;;;;;;;13.13;8.43;;;30.30;99.90;;;;;;5039328;28;20215;-74
2021/07/18 09:19:52;;;;;;;12.30;8.55;;;30.30;99.90;;;;;;5049094;28;20198;-73
2021/07/18 09:22:23;;;;;;;14.32;8.10;;;30.40;99.90;;;;;;5026523;28;20188;-76
2021/07/18 09:24:54;;;;;;;15.70;7.93;;;30.50;99.90;;;;;;5040028;28;20228;-73
2021/07/18 09:27:33;;;;;;;13.00;8.27;;;30.50;99.90;;;;;;5034772;28;20284;-73
2021/07/18 09:30:15;;;;;;;15.32;8.60;;;30.50;99.90;;;;;;5026542;28;20214;-75
2021/07/18 09:32:48;;;;;;;14.30;8.15;;;30.60;99.90;;;;;;5037742;28;20191;-72
2021/07/18 09:35:20;;;;;;;13.15;8.05;;;30.60;99.90;;;;;;5021146;28;20663;-73
2021/07/18 09:37:50;;;;;;;19.10;7.97;;;30.50;99.90;;;;;;5040628;28;20200;-73
2021/07/18 09:40:24;;;;;;;17.38;8.32;;;30.50;99.90;;;;;;5025762;28;20192;-73
2021/07/18 09:42:59;;;;;;;16.92;8.80;;;30.60;99.90;;;;;;5033619;28;20196;-73
2021/07/18 09:45:32;;;;;;;13.75;7.88;;;30.60;99.90;;;;;;5040733;28;20211;-73
2021/07/18 09:48:09;;;;;;;10.50;7.75;;;30.70;99.90;;;;;;5045491;28;20194;-73
2021/07/18 09:50:45;;;;;;;14.35;7.60;;;30.70;99.90;;;;;;5060466;28;20917;-73
2021/07/18 09:53:30;;;;;;;17.02;8.43;;;30.80;99.90;;;;;;5025329;28;20694;-74
2021/07/18 09:56:20;;;;;;;20.67;7.97;;;30.80;99.90;;;;;;5022420;28;20691;-74
2021/07/18 09:59:00;;;;;;;14.45;8.25;;;30.90;99.90;;;;;;5033415;28;20200;-75
2021/07/18 10:01:28;;;;;;;16.77;8.40;;;30.90;99.90;;;;;;5041736;28;20194;-73
2021/07/18 10:03:56;;;;;;;16.92;8.25;;;30.90;99.90;;;;;;5036061;28;20310;-74
2021/07/18 10:06:28;;;;;;;12.05;7.88;;;30.80;99.90;;;;;;5019021;28;20192;-73
2021/07/18 10:08:58;;;;;;;18.95;8.45;;;31.00;99.90;;;;;;5034308;28;20200;-74
2021/07/18 10:11:28;;;;;;;11.02;7.28;;;31.10;99.90;;;;;;5029007;28;20183;-74
2021/07/18 10:13:57;;;;;;;19.45;7.90;;;31.30;99.90;;;;;;5027091;28;20210;-74
2021/07/18 10:16:28;;;;;;;14.60;7.57;;;31.30;99.90;;;;;;5040533;28;20184;-74
2021/07/18 10:18:56;;;;;;;13.77;8.07;;;31.40;99.90;;;;;;5028833;28;20188;-74
2021/07/18 10:21:32;;;;;;;19.30;7.95;;;31.40;99.90;;;;;;5024840;28;20290;-74
2021/07/18 10:23:59;;;;;;;12.57;7.25;;;31.40;99.90;;;;;;5041885;28;20201;-73
2021/07/18 10:26:30;;;;;;;13.85;7.50;;;31.70;99.90;;;;;;5035857;28;20211;-74
2021/07/18 10:28:57;;;;;;;13.98;7.32;;;31.80;99.90;;;;;;5041451;28;20187;-74
2021/07/18 10:31:36;;;;;;;9.82;6.97;;;31.90;99.90;;;;;;5040890;28;20262;-74
2021/07/18 10:34:07;;;;;;;9.93;7.30;;;32.10;99.90;;;;;;5041298;28;20229;-73
2021/07/18 10:36:36;;;;;;;12.52;6.90;;;32.00;99.90;;;;;;5039263;28;20184;-73
2021/07/18 10:39:43;;;;;;;11.55;6.95;;;32.10;99.90;;;;;;5044812;28;20252;-74
2021/07/18 10:42:34;;;;;;;14.07;6.78;;;32.10;99.90;;;;;;5046042;28;20187;-74
2021/07/18 10:45:17;;;;;;;17.38;7.00;;;32.10;99.90;;;;;;5041129;28;20199;-74
2021/07/18 10:48:07;;;;;;;11.13;6.15;;;32.10;99.90;;;;;;5027928;28;20888;-73
2021/07/18 10:50:51;;;;;;;12.60;6.95;;;32.00;99.90;;;;;;5046375;28;20844;-73
2021/07/18 10:53:26;;;;;;;14.32;7.80;;;32.10;99.90;;;;;;5046138;28;20203;-75
2021/07/18 10:55:54;;;;;;;14.32;7.05;;;32.00;99.90;;;;;;5031619;28;20217;-72
2021/07/18 10:58:46;;;;;;;12.60;6.32;;;32.00;99.90;;;;;;5030045;28;20817;-74
2021/07/18 11:01:23;;;;;;;14.93;6.65;;;31.90;99.90;;;;;;5043868;28;20180;-73
2021/07/18 11:03:50;;;;;;;13.68;7.07;;;32.00;99.90;;;;;;5041255;28;20237;-73
2021/07/18 11:06:28;;;;;;;16.85;6.60;;;31.90;99.90;;;;;;5019979;28;20203;-74
2021/07/18 11:09:19;;;;;;;18.08;7.03;;;31.90;99.90;;;;;;5041251;28;20608;-74
2021/07/18 11:11:57;;;;;;;13.18;6.93;;;31.90;99.90;;;;;;5038361;28;20970;-74
2021/07/18 11:14:31;;;;;;;17.50;7.82;;;31.90;99.90;;;;;;5043750;28;20179;-74
2021/07/18 11:17:20;;;;;;;15.50;6.65;;;31.90;99.90;;;;;;5038969;28;20535;-74
2021/07/18 11:19:56;;;;;;;13.05;6.70;;;31.90;99.90;;;;;;5050171;28;20702;-74
2021/07/18 11:23:03;;;;;;;10.65;6.43;;;31.90;99.90;;;;;;5048261;28;20875;-73
2021/07/18 11:25:59;;;;;;;13.30;6.50;;;31.80;99.90;;;;;;5034831;28;20287;-74
2021/07/18 11:28:36;;;;;;;10.52;5.85;;;31.70;99.90;;;;;;5037169;28;20297;-74
2021/07/18 11:31:14;;;;;;;15.90;6.63;;;31.60;99.90;;;;;;5044085;28;20215;-74
2021/07/18 11:34:08;;;;;;;11.93;6.82;;;31.70;99.90;;;;;;5036507;28;20187;-75
2021/07/18 11:36:34;;;;;;;13.27;6.45;;;31.70;99.90;;;;;;5043254;28;20274;-74
2021/07/18 11:39:13;;;;;;;18.92;6.55;;;31.70;99.90;;;;;;5023323;28;20203;-74
2021/07/18 11:41:41;;;;;;;15.95;5.63;;;31.70;99.90;;;;;;5041627;28;20274;-74
2021/07/18 11:44:13;;;;;;;10.93;6.10;;;31.70;99.90;;;;;;5038755;28;20258;-74
2021/07/18 11:46:46;;;;;;;13.40;6.72;;;31.60;99.90;;;;;;5048010;28;20207;-74
2021/07/18 11:49:16;;;;;;;11.68;6.03;;;31.80;99.90;;;;;;5048266;28;20192;-74
2021/07/18 11:51:48;;;;;;;15.02;6.53;;;31.80;99.90;;;;;;5025907;28;20180;-74
2021/07/18 11:54:20;;;;;;;14.55;6.55;;;31.70;99.90;;;;;;5038169;28;20211;-74
2021/07/18 11:56:50;;;;;;;14.18;6.20;;;31.70;99.90;;;;;;5051405;28;20648;-74
2021/07/18 11:59:22;;;;;;;13.73;5.88;;;31.70;99.90;;;;;;5058986;28;20302;-74
2021/07/18 12:01:56;;;;;;;17.42;6.50;;;31.70;99.90;;;;;;5038082;28;20187;-74
2021/07/18 12:04:26;;;;;;;13.35;5.90;;;31.70;99.90;;;;;;5038250;28;20188;-74
2021/07/18 12:07:14;;;;;;;14.68;6.07;;;31.70;99.90;;;;;;5034457;28;21378;-74
2021/07/18 12:09:46;;;;;;;11.52;5.63;;;31.70;99.90;;;;;;5040181;28;20220;-74
2021/07/18 12:12:16;;;;;;;11.95;6.97;;;31.80;99.90;;;;;;5048378;28;20245;-75
2021/07/18 12:14:45;;;;;;;14.50;6.28;;;31.80;99.90;;;;;;5023615;28;20199;-74
2021/07/18 12:17:14;;;;;;;15.90;5.50;;;31.90;99.90;;;;;;5021020;28;20245;-74
2021/07/18 12:19:42;;;;;;;14.45;5.93;;;31.80;99.90;;;;;;5025388;28;20199;-74
2021/07/18 12:22:20;;;;;;;13.40;5.70;;;31.80;99.90;;;;;;5021058;28;20188;-74
2021/07/18 12:24:50;;;;;;;16.20;6.15;;;31.70;99.90;;;;;;5045816;28;20199;-74
2021/07/18 12:27:28;;;;;;;13.35;5.60;;;31.80;99.90;;;;;;5031318;28;20670;-74
2021/07/18 12:30:05;;;;;;;12.32;5.78;;;31.70;99.90;;;;;;5042098;28;20207;-74
2021/07/18 12:32:36;;;;;;;11.25;5.70;;;31.60;99.90;;;;;;5056251;28;20181;-73
2021/07/18 12:35:05;;;;;;;11.48;5.53;;;31.60;99.90;;;;;;5027721;28;20885;-74
2021/07/18 12:37:36;;;;;;;15.38;5.78;;;31.60;99.90;;;;;;5039137;28;20196;-74
2021/07/18 12:40:06;;;;;;;13.52;5.65;;;31.60;99.90;;;;;;5018107;28;20229;-74
2021/07/18 12:42:38;;;;;;;13.48;5.20;;;31.60;99.90;;;;;;5020284;28;20198;-74
2021/07/18 12:45:19;;;;;;;11.90;5.72;;;31.70;99.90;;;;;;5042197;28;20275;-74
2021/07/18 12:47:48;;;;;;;13.95;5.57;;;31.60;99.90;;;;;;5017500;28;20192;-74
2021/07/18 12:50:35;;;;;;;8.90;5.30;;;31.60;99.90;;;;;;5042331;28;20227;-75